Time;durP1;ratioP1;P1;durP2;ratioP2;P2;SDS_P1;SDS_P2;PMS_P1;PMS_P2;Temp;Humidity;BMP_temperature;BMP_pressure;BME280_temperature;BME280_humidity;BME280_pressure;Samples;Min_cycle;Max_cycle;Signal;HPM_P1;HPM_P2
2023/04/22 00:00:34;;;;;;;7.70;7.00;;;19.60;54.60;;;;;;5023641;28;20203;-46
2023/04/22 00:03:02;;;;;;;7.53;6.83;;;19.70;54.20;;;;;;5021586;28;20231;-48
2023/04/22 00:05:27;;;;;;;10.73;6.50;;;19.70;54.20;;;;;;5023884;28;20451;-46
2023/04/22 00:07:53;;;;;;;7.60;6.90;;;19.60;54.10;;;;;;5013057;28;20444;-49
2023/04/22 00:10:19;;;;;;;8.27;6.77;;;19.50;54.30;;;;;;5022211;28;20292;-46
2023/04/22 00:12:45;;;;;;;7.60;6.73;;;19.50;54.50;;;;;;5023440;28;20207;-47
2023/04/22 00:15:11;;;;;;;7.70;7.00;;;19.50;54.60;;;;;;5024001;28;20448;-48
2023/04/22 00:17:36;;;;;;;8.20;7.47;;;19.50;54.60;;;;;;5025871;28;20640;-52
2023/04/22 00:20:02;;;;;;;7.50;6.80;;;19.60;54.40;;;;;;5037259;28;20247;-46
2023/04/22 00:22:28;;;;;;;7.53;6.93;;;19.60;54.00;;;;;;5030372;28;20203;-49
2023/04/22 00:24:54;;;;;;;7.57;6.87;;;19.60;54.00;;;;;;5021977;28;20815;-48
2023/04/22 00:27:19;;;;;;;7.57;6.90;;;19.60;54.10;;;;;;5018831;28;20266;-48
2023/04/22 00:29:45;;;;;;;8.17;7.37;;;19.70;54.00;;;;;;5024179;28;20549;-47
2023/04/22 00:32:10;;;;;;;8.80;7.90;;;19.80;54.00;;;;;;5025131;28;20276;-49
2023/04/22 00:34:36;;;;;;;7.87;7.17;;;19.80;53.60;;;;;;5017488;28;20311;-48
2023/04/22 00:37:02;;;;;;;7.67;6.97;;;19.90;53.60;;;;;;5027232;28;20240;-47
2023/04/22 00:39:27;;;;;;;7.37;6.67;;;19.90;53.40;;;;;;5026102;28;20199;-46
2023/04/22 00:41:54;;;;;;;6.73;5.87;;;19.90;53.40;;;;;;5022399;28;20204;-47
2023/04/22 00:44:20;;;;;;;6.50;5.90;;;19.80;53.60;;;;;;5020455;28;20193;-45
2023/04/22 00:46:46;;;;;;;7.53;6.83;;;19.70;53.50;;;;;;5021542;28;20488;-47
2023/04/22 00:49:12;;;;;;;7.83;7.03;;;19.80;53.60;;;;;;5023173;28;20911;-49
2023/04/22 00:51:37;;;;;;;7.23;6.63;;;19.90;53.60;;;;;;5025003;28;20458;-46
2023/04/22 00:54:05;;;;;;;7.03;6.50;;;20.00;53.40;;;;;;5022233;28;20448;-50
2023/04/22 00:56:34;;;;;;;7.80;6.60;;;20.00;53.20;;;;;;5023645;28;20680;-51
2023/04/22 00:59:00;;;;;;;7.23;6.63;;;20.00;53.10;;;;;;5020680;28;20444;-46
2023/04/22 01:01:26;;;;;;;7.00;6.50;;;20.00;53.00;;;;;;5023052;28;20523;-46
2023/04/22 01:03:52;;;;;;;7.90;7.10;;;20.10;53.10;;;;;;5024080;28;20212;-46
2023/04/22 01:06:19;;;;;;;7.57;5.87;;;20.10;53.00;;;;;;5016932;28;20483;-46
2023/04/22 01:08:45;;;;;;;7.40;6.80;;;20.10;52.90;;;;;;5016102;28;20193;-46
2023/04/22 01:11:12;;;;;;;6.70;6.10;;;20.00;53.00;;;;;;5021924;28;20789;-48
2023/04/22 01:13:37;;;;;;;8.67;6.20;;;19.80;53.30;;;;;;5021811;28;21016;-46
2023/04/22 01:16:07;;;;;;;6.30;5.80;;;19.70;53.60;;;;;;5029176;28;20527;-47
2023/04/22 01:18:34;;;;;;;8.07;6.37;;;19.50;54.00;;;;;;5028771;28;20304;-47
2023/04/22 01:21:01;;;;;;;6.90;6.30;;;19.50;54.30;;;;;;5019361;28;20541;-48
2023/04/22 01:23:26;;;;;;;7.47;6.77;;;19.40;54.40;;;;;;5029868;28;20447;-47
2023/04/22 01:25:52;;;;;;;7.00;6.40;;;19.50;54.40;;;;;;5017817;28;20478;-51
2023/04/22 01:28:18;;;;;;;6.30;5.80;;;19.40;54.40;;;;;;5026663;28;20292;-46
2023/04/22 01:30:44;;;;;;;6.90;6.30;;;19.40;54.60;;;;;;5025806;28;20193;-47
2023/04/22 01:33:11;;;;;;;6.97;6.33;;;19.30;54.90;;;;;;5027574;28;20193;-48
2023/04/22 01:35:37;;;;;;;6.10;5.60;;;19.30;54.80;;;;;;5026194;28;20493;-47
2023/04/22 01:38:04;;;;;;;7.17;6.57;;;19.20;54.90;;;;;;5030463;28;20543;-46
2023/04/22 01:40:31;;;;;;;6.73;6.23;;;19.30;55.00;;;;;;5026735;28;20479;-46
2023/04/22 01:43:00;;;;;;;8.10;7.30;;;18.80;56.30;;;;;;5021037;28;20526;-51
2023/04/22 01:45:26;;;;;;;8.03;6.17;;;18.90;55.90;;;;;;5023707;28;20446;-46
2023/04/22 01:47:53;;;;;;;6.63;6.00;;;19.10;55.70;;;;;;5025593;28;20477;-47
2023/04/22 01:50:19;;;;;;;7.00;6.40;;;19.10;55.40;;;;;;5029512;28;20420;-46
2023/04/22 01:52:44;;;;;;;7.27;6.67;;;19.20;55.00;;;;;;5022463;28;20476;-45
2023/04/22 01:55:10;;;;;;;6.53;5.90;;;19.30;55.00;;;;;;5024816;28;20466;-49
2023/04/22 01:57:36;;;;;;;6.90;6.30;;;19.00;55.10;;;;;;5022281;28;20197;-49
2023/04/22 02:00:04;;;;;;;7.43;6.73;;;19.00;55.60;;;;;;5025387;28;20201;-48
2023/04/22 02:02:29;;;;;;;7.50;6.63;;;19.00;55.40;;;;;;5017812;28;20273;-52
2023/04/22 02:04:55;;;;;;;7.00;6.40;;;18.90;55.70;;;;;;5025060;28;20550;-50
2023/04/22 02:07:21;;;;;;;7.13;6.53;;;18.60;56.10;;;;;;5023226;28;20225;-47
2023/04/22 02:09:46;;;;;;;7.30;6.70;;;18.30;57.20;;;;;;5023139;28;20197;-49
2023/04/22 02:12:12;;;;;;;7.80;7.10;;;18.40;57.10;;;;;;5027433;28;20586;-48
2023/04/22 02:14:37;;;;;;;7.80;7.03;;;18.40;56.70;;;;;;5024393;28;20674;-52
2023/04/22 02:17:03;;;;;;;7.63;6.10;;;18.40;56.90;;;;;;5018516;28;20277;-48
2023/04/22 02:19:29;;;;;;;7.17;6.47;;;18.50;56.80;;;;;;5023947;28;20180;-47
2023/04/22 02:21:55;;;;;;;7.20;6.50;;;18.60;56.50;;;;;;5022952;28;20198;-49
2023/04/22 02:24:20;;;;;;;7.77;7.17;;;18.60;56.20;;;;;;5024673;28;20186;-49
2023/04/22 02:26:46;;;;;;;7.17;6.57;;;18.50;56.30;;;;;;5025436;28;20229;-51
2023/04/22 02:29:12;;;;;;;8.50;6.57;;;18.60;56.40;;;;;;5030298;28;20198;-46
2023/04/22 02:31:38;;;;;;;6.67;6.17;;;18.50;56.20;;;;;;5025117;28;20200;-49
2023/04/22 02:34:03;;;;;;;7.33;6.63;;;18.20;56.80;;;;;;5026880;28;20547;-52
2023/04/22 02:36:30;;;;;;;7.90;7.13;;;18.10;57.30;;;;;;5024286;28;20280;-50
2023/04/22 02:38:56;;;;;;;6.70;6.17;;;18.20;57.10;;;;;;5022726;28;20243;-47
2023/04/22 02:41:22;;;;;;;7.57;6.70;;;18.20;57.10;;;;;;5020002;28;21002;-50
2023/04/22 02:43:48;;;;;;;7.80;7.00;;;18.20;57.30;;;;;;5022616;28;20438;-51
2023/04/22 02:46:15;;;;;;;7.57;6.87;;;18.20;57.10;;;;;;5034572;28;20272;-49
2023/04/22 02:48:41;;;;;;;7.50;6.80;;;18.30;56.80;;;;;;5021813;28;20197;-50
2023/04/22 02:51:07;;;;;;;7.63;7.03;;;18.50;56.70;;;;;;5024359;28;20458;-53
2023/04/22 02:53:32;;;;;;;6.60;6.10;;;18.60;56.40;;;;;;5018286;28;20449;-50
2023/04/22 02:55:58;;;;;;;9.93;6.50;;;18.70;56.30;;;;;;5028252;28;20407;-46
2023/04/22 02:58:25;;;;;;;6.90;6.30;;;18.80;55.90;;;;;;5022974;28;20221;-50
2023/04/22 03:00:51;;;;;;;7.13;6.53;;;18.90;55.50;;;;;;5029758;28;20538;-53
2023/04/22 03:03:16;;;;;;;11.33;7.00;;;18.90;55.10;;;;;;5024404;28;20451;-46
2023/04/22 03:05:42;;;;;;;6.90;6.30;;;19.00;55.10;;;;;;5023149;28;20197;-48
2023/04/22 03:08:08;;;;;;;6.50;6.00;;;18.90;54.70;;;;;;5022784;28;20687;-48
2023/04/22 03:10:33;;;;;;;6.73;6.13;;;18.90;54.70;;;;;;5023188;28;20547;-51
2023/04/22 03:12:59;;;;;;;6.70;6.20;;;18.90;54.60;;;;;;5026233;28;20212;-50
2023/04/22 03:15:24;;;;;;;8.07;7.30;;;18.80;54.40;;;;;;5028050;28;20197;-50
2023/04/22 03:17:50;;;;;;;7.23;6.63;;;18.70;54.70;;;;;;5013788;28;20197;-49
2023/04/22 03:20:16;;;;;;;7.93;7.13;;;18.70;54.70;;;;;;5021724;28;20783;-50
2023/04/22 03:22:41;;;;;;;6.90;6.20;;;18.80;54.60;;;;;;5023283;28;20296;-51
2023/04/22 03:25:09;;;;;;;6.60;6.10;;;18.80;54.40;;;;;;5022779;28;20551;-48
2023/04/22 03:27:35;;;;;;;6.67;6.00;;;18.80;54.20;;;;;;5023478;28;20626;-50
2023/04/22 03:30:00;;;;;;;6.97;6.00;;;18.90;54.40;;;;;;5025714;28;20521;-52
2023/04/22 03:32:26;;;;;;;7.37;6.67;;;18.80;54.30;;;;;;5016696;28;20208;-51
2023/04/22 03:34:51;;;;;;;7.10;6.40;;;18.80;54.20;;;;;;5019121;28;20603;-49
2023/04/22 03:37:17;;;;;;;6.83;5.70;;;18.80;54.10;;;;;;5024751;28;20668;-49
2023/04/22 03:39:42;;;;;;;6.03;5.43;;;18.70;54.20;;;;;;5021454;28;20292;-53
2023/04/22 03:42:09;;;;;;;7.07;5.87;;;18.60;54.30;;;;;;5033110;28;20270;-50
2023/04/22 03:44:35;;;;;;;6.60;5.90;;;18.60;54.20;;;;;;5027371;28;20803;-49
2023/04/22 03:47:01;;;;;;;6.10;5.60;;;18.50;54.40;;;;;;5022209;28;20492;-51
2023/04/22 03:49:26;;;;;;;6.83;6.23;;;18.40;54.70;;;;;;5024958;28;20224;-52
2023/04/22 03:51:52;;;;;;;7.37;5.97;;;18.50;54.60;;;;;;5023845;28;20324;-51
2023/04/22 03:54:18;;;;;;;6.23;5.73;;;18.50;54.50;;;;;;5022019;28;20201;-50
2023/04/22 03:56:43;;;;;;;7.60;6.90;;;18.60;54.30;;;;;;5019903;28;20564;-47
2023/04/22 03:59:09;;;;;;;7.77;7.07;;;18.70;54.40;;;;;;5026290;28;20819;-51
2023/04/22 04:01:35;;;;;;;8.20;6.70;;;18.70;54.40;;;;;;5022451;28;20194;-51
2023/04/22 04:04:01;;;;;;;8.40;6.13;;;18.60;54.20;;;;;;5025328;28;20233;-51
2023/04/22 04:06:27;;;;;;;7.07;6.37;;;18.70;54.60;;;;;;5023120;28;20247;-53
2023/04/22 04:08:52;;;;;;;6.47;5.83;;;18.70;54.00;;;;;;5019846;28;20970;-52
2023/04/22 04:11:18;;;;;;;7.47;6.77;;;18.70;54.30;;;;;;5024040;28;20448;-52
2023/04/22 04:13:43;;;;;;;6.60;6.00;;;18.70;54.50;;;;;;5025737;28;20197;-52
2023/04/22 04:16:09;;;;;;;7.67;6.97;;;18.70;54.50;;;;;;5027919;28;20189;-50
2023/04/22 04:18:35;;;;;;;8.27;6.43;;;18.70;54.40;;;;;;5028196;28;20327;-49
2023/04/22 04:21:01;;;;;;;7.77;7.07;;;18.70;54.40;;;;;;5026692;28;20652;-51
2023/04/22 04:23:26;;;;;;;8.33;6.93;;;18.60;54.30;;;;;;5024822;28;21018;-54
2023/04/22 04:25:52;;;;;;;7.53;6.83;;;18.60;54.30;;;;;;5021112;28;20579;-52
2023/04/22 04:28:18;;;;;;;7.27;6.57;;;18.50;54.30;;;;;;5018492;28;20242;-50
2023/04/22 04:30:44;;;;;;;7.33;6.73;;;18.40;54.60;;;;;;5014865;28;20440;-53
2023/04/22 04:33:11;;;;;;;7.00;6.33;;;18.40;54.90;;;;;;5026054;28;20288;-52
2023/04/22 04:35:36;;;;;;;7.17;6.57;;;18.40;54.90;;;;;;5027296;28;20229;-51
2023/04/22 04:38:04;;;;;;;7.27;6.67;;;18.40;54.80;;;;;;5020637;28;20821;-53
2023/04/22 04:40:30;;;;;;;7.17;6.57;;;18.40;54.80;;;;;;5017864;28;20197;-52
2023/04/22 04:42:56;;;;;;;7.80;7.10;;;18.40;54.80;;;;;;5025338;28;20455;-52
2023/04/22 04:45:22;;;;;;;7.30;6.70;;;18.50;54.90;;;;;;5019282;28;20440;-49
2023/04/22 04:47:54;;;;;;;7.40;6.17;;;18.50;54.60;;;;;;5028840;28;20221;-49
2023/04/22 04:50:21;;;;;;;6.97;6.27;;;18.50;54.60;;;;;;5026521;28;20452;-51
2023/04/22 04:52:49;;;;;;;9.53;7.07;;;18.60;54.50;;;;;;5027120;28;20451;-52
2023/04/22 04:55:16;;;;;;;8.40;7.43;;;18.60;54.20;;;;;;5025064;28;20452;-46
2023/04/22 04:57:46;;;;;;;7.80;7.03;;;18.60;54.30;;;;;;5023850;28;20908;-50
2023/04/22 05:00:15;;;;;;;7.90;7.20;;;18.60;54.40;;;;;;5019309;28;21233;-46
2023/04/22 05:02:41;;;;;;;7.40;6.80;;;18.60;54.50;;;;;;5029242;28;20443;-46
2023/04/22 05:05:07;;;;;;;6.80;6.10;;;18.50;54.30;;;;;;5028020;28;20875;-53
2023/04/22 05:07:33;;;;;;;7.30;6.60;;;18.20;55.20;;;;;;5028361;28;22024;-50
2023/04/22 05:09:59;;;;;;;6.67;6.07;;;18.10;55.60;;;;;;5024813;28;20448;-46
2023/04/22 05:12:25;;;;;;;7.43;6.83;;;18.10;55.50;;;;;;5028955;28;20205;-48
2023/04/22 05:14:51;;;;;;;8.20;6.77;;;18.00;55.60;;;;;;5026130;28;20475;-49
2023/04/22 05:17:17;;;;;;;6.73;6.13;;;18.00;55.60;;;;;;5026444;28;20436;-51
2023/04/22 05:19:43;;;;;;;7.37;6.30;;;18.00;55.80;;;;;;5015974;28;20577;-50
2023/04/22 05:22:09;;;;;;;9.00;5.70;;;17.90;55.70;;;;;;5029067;28;21013;-46
2023/04/22 05:24:35;;;;;;;8.23;6.03;;;17.80;55.50;;;;;;5032501;28;20201;-46
2023/04/22 05:27:00;;;;;;;8.37;7.50;;;17.70;55.90;;;;;;5028913;28;20243;-48
2023/04/22 05:29:27;;;;;;;6.23;5.60;;;17.60;56.20;;;;;;5025729;28;20239;-53
2023/04/22 05:31:52;;;;;;;7.13;6.30;;;17.50;56.70;;;;;;5029006;28;20197;-46
2023/04/22 05:34:18;;;;;;;10.20;7.00;;;17.50;56.70;;;;;;5025427;28;20557;-48
2023/04/22 05:36:44;;;;;;;7.13;6.53;;;17.30;57.00;;;;;;5029085;28;20201;-47
2023/04/22 05:39:09;;;;;;;6.37;5.77;;;17.00;57.80;;;;;;5027046;28;20197;-46
2023/04/22 05:41:38;;;;;;;7.90;7.10;;;17.10;57.90;;;;;;5029519;28;20227;-47
2023/04/22 05:44:03;;;;;;;8.20;7.40;;;17.20;57.60;;;;;;5013375;28;20267;-49
2023/04/22 05:46:29;;;;;;;7.67;6.90;;;17.20;57.60;;;;;;5024662;28;20599;-50
2023/04/22 05:48:55;;;;;;;7.43;6.73;;;17.30;57.30;;;;;;5027771;28;20193;-47
2023/04/22 05:51:22;;;;;;;7.70;6.90;;;17.20;57.40;;;;;;5030039;28;20451;-46
2023/04/22 05:53:48;;;;;;;7.47;6.80;;;17.20;57.40;;;;;;5029738;28;20205;-47
2023/04/22 05:56:14;;;;;;;7.63;6.93;;;17.30;57.50;;;;;;5028803;28;20452;-46
2023/04/22 05:58:39;;;;;;;8.23;7.43;;;17.40;57.40;;;;;;5023998;28;20232;-53
2023/04/22 06:01:05;;;;;;;7.77;7.00;;;17.30;57.60;;;;;;5028313;28;20348;-48
2023/04/22 06:03:30;;;;;;;8.70;7.87;;;17.40;57.40;;;;;;5028139;28;20208;-47
2023/04/22 06:05:56;;;;;;;8.10;7.40;;;17.50;57.30;;;;;;5020120;28;20327;-47
2023/04/22 06:08:22;;;;;;;9.33;8.10;;;17.50;57.00;;;;;;5028234;28;20201;-49
2023/04/22 06:10:48;;;;;;;8.23;7.47;;;17.40;57.00;;;;;;5026210;28;20196;-46
2023/04/22 06:13:14;;;;;;;9.40;7.63;;;17.10;58.10;;;;;;5034057;28;20673;-46
2023/04/22 06:15:39;;;;;;;8.40;7.60;;;17.20;58.10;;;;;;5016263;28;20452;-47
2023/04/22 06:18:05;;;;;;;7.73;7.03;;;17.30;58.00;;;;;;5028260;28;20193;-48
2023/04/22 06:20:34;;;;;;;7.40;6.70;;;17.40;58.00;;;;;;5024218;28;20192;-48
2023/04/22 06:23:00;;;;;;;7.40;6.70;;;17.50;57.70;;;;;;5027838;28;20208;-46
2023/04/22 06:25:26;;;;;;;6.53;5.57;;;17.50;57.60;;;;;;5029839;28;20809;-46
2023/04/22 06:27:52;;;;;;;6.20;5.60;;;17.50;57.40;;;;;;5030653;28;20492;-50
2023/04/22 06:30:17;;;;;;;11.30;6.97;;;17.40;57.70;;;;;;5029631;28;20185;-46
2023/04/22 06:32:43;;;;;;;6.60;4.90;;;17.30;57.60;;;;;;5027175;28;20566;-49
2023/04/22 06:35:09;;;;;;;5.17;4.73;;;17.20;57.50;;;;;;5030370;28;20233;-47
2023/04/22 06:37:34;;;;;;;5.17;4.77;;;17.20;57.80;;;;;;5032350;28;20190;-46
2023/04/22 06:40:00;;;;;;;5.00;4.60;;;17.30;57.10;;;;;;5029978;28;20259;-46
2023/04/22 06:42:25;;;;;;;5.10;4.60;;;17.30;57.10;;;;;;5023635;28;20190;-46
2023/04/22 06:44:51;;;;;;;4.37;4.00;;;17.40;57.30;;;;;;5023268;28;20839;-46
2023/04/22 06:47:17;;;;;;;4.50;3.60;;;17.60;56.30;;;;;;5026728;28;20286;-47
2023/04/22 06:49:43;;;;;;;5.20;4.33;;;17.50;55.90;;;;;;5026936;28;20193;-45
2023/04/22 06:52:09;;;;;;;7.53;3.70;;;17.50;55.80;;;;;;5030184;28;20243;-50
2023/04/22 06:54:35;;;;;;;3.80;3.50;;;17.60;55.80;;;;;;5032087;28;20420;-46
2023/04/22 06:57:00;;;;;;;4.83;3.20;;;17.80;55.80;;;;;;5031784;28;20652;-46
2023/04/22 06:59:26;;;;;;;3.60;3.30;;;18.00;54.80;;;;;;5028475;28;20204;-49
2023/04/22 07:01:51;;;;;;;3.37;3.07;;;18.10;54.30;;;;;;5029274;28;20193;-48
2023/04/22 07:04:17;;;;;;;4.07;3.63;;;18.00;54.40;;;;;;5031768;28;20181;-47
2023/04/22 07:06:43;;;;;;;3.30;3.00;;;18.00;54.00;;;;;;5030135;28;20225;-48
2023/04/22 07:09:08;;;;;;;3.50;3.20;;;18.10;54.10;;;;;;5025895;28;20208;-46
2023/04/22 07:11:34;;;;;;;3.50;3.20;;;18.20;53.60;;;;;;5026555;28;20273;-51
2023/04/22 07:13:59;;;;;;;4.40;4.00;;;18.30;53.70;;;;;;5012463;28;21091;-45
2023/04/22 07:16:25;;;;;;;5.47;3.80;;;18.50;53.50;;;;;;5021665;28;20197;-47
2023/04/22 07:18:51;;;;;;;3.33;3.13;;;18.60;53.40;;;;;;5018915;28;20186;-52
2023/04/22 07:21:16;;;;;;;3.80;3.57;;;18.80;53.10;;;;;;5029502;28;20215;-46
2023/04/22 07:23:42;;;;;;;3.63;3.30;;;19.00;53.60;;;;;;5029739;28;20204;-48
2023/04/22 07:26:07;;;;;;;4.00;3.70;;;18.90;53.20;;;;;;5024286;28;21752;-48
2023/04/22 07:28:33;;;;;;;4.00;3.60;;;18.90;52.60;;;;;;5024970;28;20580;-49
2023/04/22 07:30:59;;;;;;;4.33;3.93;;;18.80;53.10;;;;;;5030529;28;20193;-46
2023/04/22 07:33:24;;;;;;;4.63;3.97;;;19.00;52.90;;;;;;5025261;28;20188;-49
2023/04/22 07:35:50;;;;;;;4.67;4.27;;;19.10;52.70;;;;;;5029018;28;20599;-46
2023/04/22 07:38:16;;;;;;;5.20;4.17;;;19.00;52.70;;;;;;5024608;28;20194;-47
2023/04/22 07:40:42;;;;;;;4.47;3.47;;;19.00;53.10;;;;;;5028457;28;20190;-46
2023/04/22 07:43:08;;;;;;;4.00;3.63;;;19.20;52.70;;;;;;5030710;28;20435;-48
2023/04/22 07:45:33;;;;;;;3.37;3.13;;;19.50;52.90;;;;;;5025898;28;20923;-48
2023/04/22 07:47:59;;;;;;;4.00;3.70;;;19.70;52.10;;;;;;5028434;28;21550;-46
2023/04/22 07:50:25;;;;;;;5.23;3.70;;;19.80;51.70;;;;;;5023803;28;20200;-47
2023/04/22 07:52:50;;;;;;;3.13;2.83;;;19.80;51.20;;;;;;5019279;28;20197;-46
2023/04/22 07:55:16;;;;;;;3.43;3.20;;;20.00;51.10;;;;;;5018331;28;20189;-48
2023/04/22 07:57:41;;;;;;;3.30;3.00;;;20.00;50.50;;;;;;5018595;28;20253;-50
2023/04/22 08:00:09;;;;;;;3.17;2.87;;;20.10;50.40;;;;;;5015454;28;20197;-50
2023/04/22 08:02:34;;;;;;;3.63;3.33;;;20.40;50.60;;;;;;5018182;28;20201;-47
2023/04/22 08:05:00;;;;;;;3.30;3.10;;;20.70;50.00;;;;;;5024997;28;20505;-49
2023/04/22 08:07:26;;;;;;;3.13;2.93;;;20.90;48.90;;;;;;5024887;28;20244;-49
2023/04/22 08:09:52;;;;;;;3.80;2.57;;;20.70;48.00;;;;;;5021834;28;20193;-48
2023/04/22 08:12:18;;;;;;;2.90;2.70;;;20.80;48.40;;;;;;5022407;28;20444;-49
2023/04/22 08:14:43;;;;;;;4.03;3.10;;;21.00;48.10;;;;;;5024706;28;20275;-49
2023/04/22 08:17:09;;;;;;;5.47;3.20;;;21.10;47.40;;;;;;5023283;28;20283;-50
2023/04/22 08:19:35;;;;;;;8.20;3.53;;;20.90;47.80;;;;;;5027336;28;20196;-48
2023/04/22 08:22:00;;;;;;;3.40;3.10;;;20.60;48.00;;;;;;5020202;28;20965;-50
2023/04/22 08:24:26;;;;;;;3.77;3.30;;;20.80;48.10;;;;;;5021568;28;20201;-46
2023/04/22 08:26:51;;;;;;;2.90;2.70;;;20.80;48.10;;;;;;5025107;28;20307;-47
2023/04/22 08:29:17;;;;;;;2.83;2.63;;;20.80;46.80;;;;;;5021739;28;20609;-49
2023/04/22 08:31:43;;;;;;;2.90;2.70;;;21.10;47.20;;;;;;5020982;28;20193;-51
2023/04/22 08:34:08;;;;;;;2.53;2.33;;;21.50;46.90;;;;;;5021120;28;20253;-47
2023/04/22 08:36:34;;;;;;;2.67;2.47;;;21.70;46.00;;;;;;5010660;28;20729;-47
2023/04/22 08:39:00;;;;;;;2.63;2.47;;;21.70;46.20;;;;;;5022783;28;20193;-53
2023/04/22 08:41:26;;;;;;;2.77;2.57;;;22.00;46.30;;;;;;5020376;28;20309;-51
2023/04/22 08:43:52;;;;;;;3.17;2.87;;;22.20;46.30;;;;;;5018049;28;20198;-48
2023/04/22 08:46:19;;;;;;;3.20;2.73;;;22.30;46.30;;;;;;5023607;28;20221;-50
2023/04/22 08:48:46;;;;;;;3.00;2.80;;;22.30;45.70;;;;;;5021338;28;20455;-49
2023/04/22 08:51:15;;;;;;;2.93;2.73;;;22.20;45.20;;;;;;5027937;28;20440;-47
2023/04/22 08:53:42;;;;;;;2.87;2.67;;;22.20;45.10;;;;;;5011968;28;20443;-47
2023/04/22 08:56:07;;;;;;;3.70;3.10;;;22.30;45.20;;;;;;5014042;28;20454;-49
2023/04/22 08:58:33;;;;;;;3.30;2.80;;;22.50;44.70;;;;;;5015329;28;20983;-51
2023/04/22 09:01:00;;;;;;;2.77;2.57;;;22.80;45.00;;;;;;5019429;28;20201;-48
2023/04/22 09:03:25;;;;;;;3.63;2.63;;;23.00;44.40;;;;;;5019377;28;20444;-50
2023/04/22 09:05:53;;;;;;;3.07;2.73;;;23.10;43.70;;;;;;5016732;28;20943;-51
2023/04/22 09:08:19;;;;;;;3.30;3.00;;;23.30;43.00;;;;;;5021476;28;20663;-48
2023/04/22 09:10:45;;;;;;;2.90;2.70;;;23.50;42.40;;;;;;5015741;28;21349;-49
2023/04/22 09:13:13;;;;;;;3.87;2.80;;;23.60;42.40;;;;;;5015948;28;20455;-52
2023/04/22 09:15:38;;;;;;;3.83;2.77;;;23.80;42.20;;;;;;5024728;28;20201;-50
2023/04/22 09:18:04;;;;;;;6.17;4.23;;;24.00;42.30;;;;;;5023661;28;20439;-53
2023/04/22 09:20:34;;;;;;;2.60;2.40;;;24.20;42.00;;;;;;5027066;28;20198;-53
2023/04/22 09:23:06;;;;;;;2.57;2.37;;;24.50;41.50;;;;;;5028201;28;20201;-50
2023/04/22 09:25:34;;;;;;;1.90;1.80;;;24.60;39.60;;;;;;5026359;28;21001;-53
2023/04/22 09:28:00;;;;;;;2.77;2.20;;;24.70;39.00;;;;;;5017571;28;20483;-52
2023/04/22 09:30:36;;;;;;;3.57;2.33;;;25.00;39.50;;;;;;5020002;28;20483;-54
2023/04/22 09:33:04;;;;;;;2.43;2.20;;;25.10;38.40;;;;;;5019238;28;20451;-51
2023/04/22 09:35:35;;;;;;;1.87;1.77;;;25.10;38.00;;;;;;5018311;28;20494;-48
2023/04/22 09:38:05;;;;;;;2.77;2.03;;;25.40;37.10;;;;;;5029901;28;20451;-53
2023/04/22 09:40:31;;;;;;;2.20;2.00;;;25.50;36.40;;;;;;5023760;28;20963;-52
2023/04/22 09:42:59;;;;;;;1.87;1.67;;;25.60;37.20;;;;;;5026386;28;20441;-50
2023/04/22 09:45:35;;;;;;;2.27;2.10;;;25.70;35.50;;;;;;5026992;28;20455;-54
2023/04/22 09:48:09;;;;;;;2.07;1.60;;;25.90;35.70;;;;;;5019774;28;20484;-52
2023/04/22 09:50:36;;;;;;;2.40;2.20;;;26.10;36.10;;;;;;5027325;28;20440;-52
2023/04/22 09:53:07;;;;;;;3.17;2.37;;;25.90;35.40;;;;;;5022300;28;20456;-52
2023/04/22 09:55:36;;;;;;;2.20;1.97;;;26.20;36.00;;;;;;5020777;28;20455;-54
2023/04/22 09:58:11;;;;;;;2.70;2.10;;;26.00;35.30;;;;;;5023817;28;20456;-54
2023/04/22 10:00:47;;;;;;;6.00;2.00;;;26.10;34.40;;;;;;5019300;28;20825;-48
2023/04/22 10:03:13;;;;;;;1.97;1.87;;;26.20;35.20;;;;;;5025815;28;20470;-46
2023/04/22 10:05:40;;;;;;;1.77;1.67;;;26.50;35.30;;;;;;5023634;28;20455;-53
2023/04/22 10:08:07;;;;;;;1.83;1.73;;;26.30;34.40;;;;;;5022182;28;20913;-52
2023/04/22 10:10:33;;;;;;;2.60;1.83;;;26.60;35.40;;;;;;5024309;28;20470;-53
2023/04/22 10:13:05;;;;;;;2.40;1.90;;;26.90;35.30;;;;;;5023271;28;20505;-50
2023/04/22 10:15:33;;;;;;;2.07;1.97;;;27.40;35.00;;;;;;5026349;28;20447;-53
2023/04/22 10:18:02;;;;;;;2.00;1.90;;;27.60;34.60;;;;;;5028815;28;20443;-51
2023/04/22 10:20:30;;;;;;;2.57;1.90;;;27.90;32.70;;;;;;5021392;28;20501;-51
2023/04/22 10:22:56;;;;;;;1.60;1.50;;;27.70;31.30;;;;;;5022279;28;20447;-52
2023/04/22 10:25:24;;;;;;;1.90;1.70;;;28.00;31.30;;;;;;5021993;28;23491;-50
2023/04/22 10:28:09;;;;;;;1.87;1.63;;;28.20;31.00;;;;;;5021939;28;20582;-53
2023/04/22 10:30:37;;;;;;;1.77;1.67;;;28.40;30.50;;;;;;5025788;28;20914;-52
2023/04/22 10:33:26;;;;;;;1.63;1.53;;;28.60;30.00;;;;;;5022831;28;20440;-50
2023/04/22 10:36:08;;;;;;;1.73;1.63;;;28.80;30.20;;;;;;5019638;28;21095;-52
2023/04/22 10:38:35;;;;;;;3.23;2.53;;;28.40;30.40;;;;;;5023637;28;20992;-53
2023/04/22 10:41:02;;;;;;;3.70;2.63;;;28.70;31.00;;;;;;5020723;28;20526;-51
2023/04/22 10:43:40;;;;;;;2.10;2.00;;;29.10;32.40;;;;;;5018719;28;20457;-52
2023/04/22 10:46:06;;;;;;;3.00;2.10;;;29.50;30.40;;;;;;5024502;28;20474;-51
2023/04/22 10:48:48;;;;;;;2.43;2.23;;;29.60;29.50;;;;;;5023546;28;20627;-49
2023/04/22 10:51:39;;;;;;;2.50;1.97;;;29.80;28.80;;;;;;5029168;28;20197;-52
2023/04/22 10:54:06;;;;;;;2.63;2.43;;;29.70;28.90;;;;;;5022020;28;20574;-50
2023/04/22 10:56:31;;;;;;;4.13;2.00;;;29.60;28.20;;;;;;5025622;28;20479;-52
2023/04/22 10:58:57;;;;;;;2.30;2.20;;;29.70;28.20;;;;;;5028052;28;20495;-50
2023/04/22 11:01:26;;;;;;;2.30;2.10;;;29.60;28.60;;;;;;5025141;28;20236;-50
2023/04/22 11:03:51;;;;;;;2.13;1.93;;;29.80;29.10;;;;;;5025502;28;20193;-52
2023/04/22 11:06:21;;;;;;;2.23;1.97;;;30.10;28.80;;;;;;5025335;28;20475;-51
2023/04/22 11:08:48;;;;;;;3.43;2.40;;;30.40;27.90;;;;;;5028150;28;20190;-52
2023/04/22 11:11:17;;;;;;;2.13;1.93;;;30.80;27.90;;;;;;5021269;28;20436;-53
2023/04/22 11:13:43;;;;;;;1.93;1.83;;;30.90;28.50;;;;;;5024079;28;20436;-50
2023/04/22 11:16:09;;;;;;;2.83;2.00;;;31.00;27.00;;;;;;5023131;28;20444;-53
2023/04/22 11:18:36;;;;;;;3.87;2.27;;;31.00;26.70;;;;;;5025475;28;20467;-54
2023/04/22 11:21:07;;;;;;;2.70;1.87;;;31.00;26.70;;;;;;5028733;28;20444;-53
2023/04/22 11:23:33;;;;;;;2.53;1.40;;;31.10;26.00;;;;;;5028571;28;20515;-52
2023/04/22 11:26:01;;;;;;;7.50;2.30;;;30.50;25.00;;;;;;5025838;28;20534;-54
2023/04/22 11:28:27;;;;;;;3.47;1.77;;;30.40;25.80;;;;;;5025524;28;20239;-55
2023/04/22 11:30:59;;;;;;;2.90;1.73;;;30.40;25.00;;;;;;5022729;28;20487;-55
2023/04/22 11:33:25;;;;;;;4.03;2.10;;;30.60;25.30;;;;;;5018641;28;20436;-53
2023/04/22 11:35:50;;;;;;;3.00;1.70;;;30.80;25.40;;;;;;5024960;28;20586;-50
2023/04/22 11:38:16;;;;;;;1.83;1.73;;;30.90;25.00;;;;;;5029983;28;20557;-52
2023/04/22 11:40:42;;;;;;;1.67;1.57;;;30.70;24.40;;;;;;5024444;28;20224;-52
2023/04/22 11:43:09;;;;;;;3.40;1.90;;;30.40;24.20;;;;;;5013852;28;20194;-52
2023/04/22 11:45:36;;;;;;;2.37;1.90;;;30.40;24.50;;;;;;5024582;28;20517;-54
2023/04/22 11:48:03;;;;;;;2.20;1.83;;;30.30;24.80;;;;;;5026889;28;20493;-52
2023/04/22 11:50:34;;;;;;;1.77;1.67;;;30.50;24.30;;;;;;5024832;28;20419;-50
2023/04/22 11:53:02;;;;;;;2.40;2.00;;;30.40;24.60;;;;;;5023014;28;21228;-55
2023/04/22 11:55:29;;;;;;;2.00;1.83;;;30.60;24.70;;;;;;5022557;28;20447;-55
2023/04/22 11:58:08;;;;;;;3.10;1.90;;;30.70;25.90;;;;;;5018717;28;20448;-53
2023/04/22 12:00:37;;;;;;;2.30;1.93;;;30.80;25.60;;;;;;5021804;28;20451;-54
2023/04/22 12:03:06;;;;;;;1.90;1.80;;;30.90;25.30;;;;;;5025145;28;20423;-53
2023/04/22 12:05:33;;;;;;;1.93;1.80;;;30.80;25.70;;;;;;5020394;28;20522;-56
2023/04/22 12:08:02;;;;;;;3.07;2.40;;;30.90;25.70;;;;;;5021006;28;20480;-55
2023/04/22 12:10:28;;;;;;;2.63;2.30;;;30.90;26.00;;;;;;5017561;28;22275;-57
2023/04/22 12:12:53;;;;;;;1.87;1.73;;;30.70;25.60;;;;;;5028879;28;20429;-54
2023/04/22 12:15:19;;;;;;;2.30;2.10;;;30.60;25.90;;;;;;5024895;28;20239;-55
2023/04/22 12:17:45;;;;;;;2.60;2.13;;;30.50;25.50;;;;;;5022458;28;20676;-55
2023/04/22 12:20:11;;;;;;;1.90;1.80;;;30.50;26.00;;;;;;5029318;28;20201;-54
2023/04/22 12:22:38;;;;;;;1.63;1.50;;;30.50;26.10;;;;;;5027809;28;20570;-55
2023/04/22 12:25:03;;;;;;;2.00;1.90;;;30.60;26.10;;;;;;5029256;28;20452;-54
2023/04/22 12:27:29;;;;;;;3.13;1.80;;;30.80;26.10;;;;;;5024232;28;20546;-56
2023/04/22 12:29:56;;;;;;;2.87;1.90;;;30.80;25.80;;;;;;5025586;28;20726;-56
2023/04/22 12:32:22;;;;;;;2.30;2.10;;;30.80;25.20;;;;;;5027361;28;20221;-54
2023/04/22 12:34:48;;;;;;;2.07;1.80;;;30.40;25.00;;;;;;5028773;28;20480;-56
2023/04/22 12:37:14;;;;;;;3.87;2.23;;;30.10;25.30;;;;;;5028431;28;21267;-56
2023/04/22 12:39:40;;;;;;;2.10;1.90;;;30.10;25.50;;;;;;5025653;28;20205;-55
2023/04/22 12:42:06;;;;;;;3.10;2.80;;;29.90;26.20;;;;;;5028960;28;20202;-55